Terminal Aerodrome Forecast
Issued by NWS Amarillo, TX

Home | Current Version | Previous Version | Text Only | Print | Product List | Glossary On
Versions: 1 2 3 4 5 6 7 8 9 10 11 12 13 14 15 16
000
FTUS44 KAMA 170000 CCA
TAFGUY
TAF COR
KGUY 170011Z 1700/1724 04015G25KT P6SM BKN150
     FM170900 02020G28KT 5SM -SHRA BR OVC015
     FM171500 03015KT P6SM OVC015
     FM172000 06008KT P6SM SCT030=

USA.gov is the U.S. government's official web portal to all federal, state and local government web resources and services.